Carolina, PR

7:17 PM AST on October 22, 2014 (GMT -0400)
Manejo de Emergencias | Change Station
CLOSE
Current Station
Personal Weather Station
Location: Carolina, PR
Elevation: 40 ft
Nearby Weather Stations

Elev 40 ft 18.38 °N, 65.97 °W | Updated 13 minutes ago

Partly Cloudy
Partly Cloudy
82.0 °F
Feels Like 88 °F
N
1.0
Wind Variable Wind from South
Gusts 4.0 mph

Today
High -- | Low -- °F
--% Chance of Precip.
Yesterday
High -- | Low -- °F
Precip. -- in
6:19 AM 5:56 PM
Waning Crescent, 1% visible
Pressure 29.90 in
Visibility 10.0 miles
Clouds Few 3200 ft
Heat Index 88 °F
Dew Point 74 °F
Humidity 78%
Rainfall -999.00 in
Snow Depth Not available.
UV 0 out of 12
Pollen Not available.
Air Quality Not available.
Flu Activity Local Activity
METAR TJSJ 222256Z 10007KT 10SM FEW032 29/22 A2990 RMK AO2 SLP125 T02890222

More Conditions Fewer Conditions

Pressure 29.90 in
Visibility 10.0 miles
Clouds Few 3200 ft
Heat Index 88 °F
Dew Point 74 °F
Humidity 78%
Rainfall -999.00 in
Snow Depth Not available.
UV 0 out of 12
Pollen Not available.
Air Quality Not available.
Flu Activity Local Activity
METAR TJSJ 222256Z 10007KT 10SM FEW032 29/22 A2990 RMK AO2 SLP125 T02890222

More Conditions Fewer Conditions

10-Day Weather Forecast

Almanac

Astronomy

Oct. 22, 2014 Rise Set
Actual Time 6:19 AM AST 5:56 PM AST
Civil Twilight 5:57 AM AST 6:18 PM AST
Nautical Twilight 5:32 AM AST 6:44 PM AST
Astronomical Twilight 5:06 AM AST 7:09 PM AST
Moon 5:08 AM AST 5:13 PM AST
Length of Visible Light 12h 21m
Length of Day
11h 36m
Tomorrow will be 0m 57s shorter.
Waning Crescent, 1% of the Moon is Illuminated
Today
Waning Crescent
Oct 23
New
Oct 30
First Quarter
Nov 6
Full
Nov 14
Last Quarter

Community

WunderPhotos

Upload Photos

1,764,075 photos uploaded!

WunderBlogs® & News

Nearby

Snow Depth

Station Depth Elevation
No new snow has been reported.

Earthquake Activity

City Distance Mag. Time & Date
No recent earthquake activity has been reported nearby.
Minimum magnitude displayed is 2.5.

Coastal Water Temperatures

Place Temperature
San Juan, PR 87.1 °F
Mayaguez, PR 86.0 °F
Esperanza, PR 86.0 °F

Nearby Weather Stations